Time;durP1;ratioP1;P1;durP2;ratioP2;P2;SDS_P1;SDS_P2;PMS_P1;PMS_P2;Temp;Humidity;BMP_temperature;BMP_pressure;BME280_temperature;BME280_humidity;BME280_pressure;Samples;Min_cycle;Max_cycle;Signal;HPM_P1;HPM_P2
2023/08/09 00:02:22;;;;;;;6.60;5.80;;;;;;;16.79;100.00;99343.48;106130;1256;67470;-75
2023/08/09 00:04:49;;;;;;;9.40;6.20;;;;;;;16.82;100.00;99344.20;106131;1255;72520;-75
2023/08/09 00:07:15;;;;;;;7.40;5.90;;;;;;;16.74;100.00;99343.83;106103;1256;60537;-76
2023/08/09 00:09:42;;;;;;;10.30;6.10;;;;;;;16.74;100.00;99348.21;106121;1251;60447;-74
2023/08/09 00:12:09;;;;;;;6.90;6.20;;;;;;;16.78;100.00;99345.34;106074;1251;72278;-75
2023/08/09 00:14:36;;;;;;;9.60;6.40;;;;;;;16.69;100.00;99345.96;106089;1253;68445;-77
2023/08/09 00:17:02;;;;;;;9.80;6.20;;;;;;;16.58;100.00;99343.84;106077;1251;71144;-76
2023/08/09 00:19:30;;;;;;;11.10;6.00;;;;;;;16.40;100.00;99346.05;106107;1253;61966;-76
2023/08/09 00:21:56;;;;;;;8.90;5.90;;;;;;;16.27;100.00;99343.55;105987;1257;60338;-75
2023/08/09 00:24:23;;;;;;;7.60;6.50;;;;;;;16.35;100.00;99348.04;106083;1256;73403;-76
2023/08/09 00:26:50;;;;;;;9.50;6.50;;;;;;;16.43;100.00;99349.27;106126;1253;68521;-81
2023/08/09 00:29:17;;;;;;;11.10;6.80;;;;;;;16.27;100.00;99355.15;106112;1255;72922;-74
2023/08/09 00:31:43;;;;;;;8.60;5.90;;;;;;;16.34;100.00;99358.45;106104;1256;61676;-74
2023/08/09 00:34:10;;;;;;;9.00;6.60;;;;;;;16.42;100.00;99360.98;106022;1257;60411;-76
2023/08/09 00:36:37;;;;;;;10.60;6.80;;;;;;;16.20;100.00;99363.64;106216;1251;73760;-75
2023/08/09 00:39:05;;;;;;;11.40;6.80;;;;;;;16.03;100.00;99361.11;106577;1254;66453;-76
2023/08/09 00:41:33;;;;;;;8.10;6.50;;;;;;;15.90;100.00;99360.98;106302;1255;72616;-74
2023/08/09 00:44:01;;;;;;;8.40;6.00;;;;;;;15.92;100.00;99361.31;105976;1253;60473;-75
2023/08/09 00:46:28;;;;;;;8.30;5.80;;;;;;;15.82;100.00;99368.89;106138;1251;60531;-76
2023/08/09 00:48:55;;;;;;;11.10;6.70;;;;;;;15.74;100.00;99368.34;106111;1254;73452;-79
2023/08/09 00:51:22;;;;;;;8.20;6.10;;;;;;;15.86;100.00;99372.45;106181;1255;68840;-76
2023/08/09 00:53:49;;;;;;;9.70;6.30;;;;;;;16.09;100.00;99373.02;106158;1256;72323;-75
2023/08/09 00:56:15;;;;;;;6.50;5.90;;;;;;;16.14;100.00;99372.36;106096;1254;61624;-75
2023/08/09 00:58:42;;;;;;;11.90;7.40;;;;;;;16.07;100.00;99371.18;106114;1256;60461;-75
2023/08/09 01:01:10;;;;;;;6.90;5.60;;;;;;;16.05;100.00;99369.96;105989;1259;73496;-77
2023/08/09 01:03:37;;;;;;;10.40;6.40;;;;;;;16.03;100.00;99373.83;106120;1255;68518;-76
2023/08/09 01:06:29;;;;;;;7.90;6.30;;;;;;;16.04;100.00;99372.47;106137;1254;72471;-76
2023/08/09 01:09:15;;;;;;;9.50;7.10;;;;;;;16.07;100.00;99377.88;105538;1260;61749;-76
2023/08/09 01:11:48;;;;;;;11.50;6.90;;;;;;;16.06;100.00;99381.95;105576;1260;60422;-75
2023/08/09 01:14:17;;;;;;;10.80;6.60;;;;;;;16.03;100.00;99382.83;105545;1262;73634;-74
2023/08/09 01:16:44;;;;;;;6.80;6.20;;;;;;;15.87;100.00;99385.27;105407;1264;68566;-76
2023/08/09 01:19:20;;;;;;;8.00;6.00;;;;;;;15.92;100.00;99386.77;105400;1261;72427;-75
2023/08/09 01:21:47;;;;;;;10.80;5.80;;;;;;;16.03;100.00;99383.13;105370;1261;61785;-76
2023/08/09 01:24:13;;;;;;;9.80;5.80;;;;;;;15.96;100.00;99384.28;105434;1265;60467;-76
2023/08/09 01:26:40;;;;;;;10.40;6.70;;;;;;;15.94;100.00;99387.17;105373;1260;72416;-79
2023/08/09 01:29:07;;;;;;;7.90;5.70;;;;;;;15.97;100.00;99387.02;105559;1263;68416;-75
2023/08/09 01:31:33;;;;;;;9.70;6.70;;;;;;;15.93;100.00;99390.98;105493;1263;72440;-74
2023/08/09 01:34:00;;;;;;;9.40;7.10;;;;;;;16.00;100.00;99388.65;105505;1262;60614;-75
2023/08/09 01:36:30;;;;;;;10.30;6.30;;;;;;;15.81;100.00;99387.95;105390;1265;60561;-75
2023/08/09 01:39:07;;;;;;;6.90;5.70;;;;;;;15.75;100.00;99391.11;105426;1261;73926;-75
2023/08/09 01:41:34;;;;;;;9.20;6.50;;;;;;;15.81;100.00;99392.40;105449;1260;68481;-76
2023/08/09 01:44:01;;;;;;;6.70;6.00;;;;;;;15.84;100.00;99392.52;105433;1271;73244;-76
2023/08/09 01:46:28;;;;;;;10.60;6.40;;;;;;;15.98;100.00;99396.65;105819;1255;62236;-75
2023/08/09 01:49:09;;;;;;;7.70;5.70;;;;;;;15.94;100.00;99397.19;106103;1251;60538;-79
2023/08/09 01:51:36;;;;;;;13.80;6.50;;;;;;;15.72;100.00;99400.57;106158;1255;72609;-76
2023/08/09 01:54:02;;;;;;;11.50;6.80;;;;;;;15.66;100.00;99402.42;106130;1256;68591;-77
2023/08/09 01:56:30;;;;;;;12.50;7.40;;;;;;;15.53;100.00;99405.73;106111;1256;72606;-74
2023/08/09 01:58:57;;;;;;;8.80;6.80;;;;;;;15.38;100.00;99406.11;105817;1251;61960;-76
2023/08/09 02:01:24;;;;;;;9.40;5.90;;;;;;;15.10;100.00;99409.52;106144;1256;60423;-75
2023/08/09 02:03:50;;;;;;;22.00;7.10;;;;;;;15.27;100.00;99411.56;106121;1256;73705;-74
2023/08/09 02:06:17;;;;;;;12.70;6.80;;;;;;;15.25;100.00;99413.74;105919;1254;68498;-74
2023/08/09 02:08:44;;;;;;;9.80;6.50;;;;;;;15.04;100.00;99411.80;105923;1254;71326;-76
2023/08/09 02:11:12;;;;;;;8.20;6.90;;;;;;;15.00;100.00;99412.33;106145;1263;60492;-75
2023/08/09 02:13:39;;;;;;;10.30;6.80;;;;;;;15.39;100.00;99407.95;106143;1251;60578;-76
2023/08/09 02:16:06;;;;;;;8.20;5.60;;;;;;;15.50;100.00;99407.77;106026;1266;73572;-77
2023/08/09 02:18:33;;;;;;;12.70;6.20;;;;;;;15.57;100.00;99407.73;109636;1251;67327;-74
2023/08/09 02:21:02;;;;;;;8.30;6.60;;;;;;;15.51;100.00;99412.52;109555;1251;71176;-74
2023/08/09 02:23:29;;;;;;;10.60;6.40;;;;;;;15.55;100.00;99415.82;109623;1251;60556;-75
2023/08/09 02:25:56;;;;;;;9.20;7.00;;;;;;;15.47;100.00;99415.31;108957;1256;59286;-75
2023/08/09 02:28:23;;;;;;;7.40;6.30;;;;;;;15.34;100.00;99417.10;106102;1256;73380;-76
2023/08/09 02:30:49;;;;;;;9.70;7.00;;;;;;;15.49;100.00;99418.22;106147;1255;68521;-77
2023/08/09 02:33:17;;;;;;;14.00;7.00;;;;;;;15.26;100.00;99421.07;106132;1253;71240;-75
2023/08/09 02:35:54;;;;;;;9.90;6.90;;;;;;;15.14;100.00;99421.91;106148;1255;60451;-81
2023/08/09 02:38:23;;;;;;;11.80;7.40;;;;;;;15.11;100.00;99420.38;106149;1250;61622;-79
2023/08/09 02:40:50;;;;;;;11.30;7.20;;;;;;;15.00;100.00;99417.20;105918;1260;73659;-75
2023/08/09 02:43:21;;;;;;;10.00;7.20;;;;;;;14.87;100.00;99419.86;105936;1267;67158;-75
2023/08/09 02:45:47;;;;;;;10.80;7.10;;;;;;;14.91;100.00;99430.09;106020;1253;71245;-75
2023/08/09 02:48:14;;;;;;;7.40;6.20;;;;;;;14.97;100.00;99433.16;106293;1251;61649;-74
2023/08/09 02:50:41;;;;;;;17.90;7.70;;;;;;;14.96;100.00;99438.37;106243;1251;60566;-74
2023/08/09 02:53:08;;;;;;;11.40;8.00;;;;;;;14.88;100.00;99441.10;106245;1256;73843;-75
2023/08/09 02:55:35;;;;;;;125.00;15.50;;;;;;;14.65;100.00;99438.81;106212;1256;68287;-73
2023/08/09 02:58:05;;;;;;;38.00;8.60;;;;;;;14.74;100.00;99443.93;106133;1251;72393;-75
2023/08/09 03:00:32;;;;;;;24.60;7.30;;;;;;;14.71;100.00;99441.19;106159;1250;60493;-77
2023/08/09 03:02:59;;;;;;;17.90;7.60;;;;;;;14.60;100.00;99443.39;106138;1256;60548;-75
2023/08/09 03:05:27;;;;;;;8.20;6.90;;;;;;;14.51;100.00;99445.93;106008;1266;120136;-75
2023/08/09 03:07:54;;;;;;;7.80;7.00;;;;;;;14.63;100.00;99448.55;105900;1256;68548;-75
2023/08/09 03:10:22;;;;;;;10.40;5.70;;;;;;;14.60;100.00;99450.02;106149;1251;72901;-75
2023/08/09 03:12:48;;;;;;;12.60;7.00;;;;;;;14.58;100.00;99450.54;105843;1251;60592;-75
2023/08/09 03:15:16;;;;;;;9.10;6.30;;;;;;;14.64;100.00;99454.17;105924;1251;61711;-75
2023/08/09 03:17:43;;;;;;;15.00;7.10;;;;;;;14.89;100.00;99456.52;106103;1256;73430;-75
2023/08/09 03:20:13;;;;;;;20.80;8.00;;;;;;;15.00;100.00;99456.28;106144;1251;68635;-76
2023/08/09 03:22:44;;;;;;;10.40;7.10;;;;;;;15.10;100.00;99463.21;105928;1251;72595;-79
2023/08/09 03:25:12;;;;;;;9.50;6.20;;;;;;;15.25;100.00;99460.83;106106;1261;61639;-77
2023/08/09 03:27:41;;;;;;;7.20;6.40;;;;;;;15.48;100.00;99470.16;105919;1251;60476;-75
2023/08/09 03:30:09;;;;;;;10.90;5.90;;;;;;;15.18;100.00;99467.14;105880;1257;72588;-75
2023/08/09 03:32:36;;;;;;;9.00;5.40;;;;;;;15.33;100.00;99472.86;106144;1255;68484;-76
2023/08/09 03:35:05;;;;;;;8.00;5.10;;;;;;;15.45;100.00;99476.09;105872;1257;72383;-76
2023/08/09 03:37:32;;;;;;;6.30;5.40;;;;;;;15.78;100.00;99475.45;106118;1255;61910;-75
2023/08/09 03:39:58;;;;;;;12.10;5.80;;;;;;;16.13;100.00;99481.42;106143;1256;60452;-74
2023/08/09 03:42:25;;;;;;;7.30;5.40;;;;;;;16.47;100.00;99475.41;106239;1257;73453;-75
2023/08/09 03:44:53;;;;;;;6.40;4.80;;;;;;;16.45;100.00;99478.96;105919;1257;67458;-76
2023/08/09 03:47:19;;;;;;;10.80;5.40;;;;;;;16.73;100.00;99473.66;106106;1255;71400;-79
2023/08/09 03:49:46;;;;;;;8.90;5.30;;;;;;;16.79;100.00;99474.21;105851;1256;61631;-75
2023/08/09 03:52:14;;;;;;;10.90;5.20;;;;;;;17.12;100.00;99477.45;105801;1251;60514;-75
2023/08/09 03:54:40;;;;;;;6.70;4.10;;;;;;;17.42;100.00;99478.54;105881;1251;73839;-76
2023/08/09 03:57:07;;;;;;;7.80;4.50;;;;;;;17.40;97.70;99478.02;106100;1251;68664;-76
2023/08/09 03:59:36;;;;;;;8.00;4.80;;;;;;;17.40;97.86;99483.83;106068;1256;71155;-76
2023/08/09 04:02:03;;;;;;;8.60;5.20;;;;;;;17.28;99.12;99480.62;106116;1256;61658;-76
2023/08/09 04:04:30;;;;;;;8.40;4.70;;;;;;;17.42;98.34;99487.38;106078;1251;60531;-76
2023/08/09 04:06:56;;;;;;;9.40;5.20;;;;;;;17.62;96.84;99491.85;105887;1251;73730;-78
2023/08/09 04:09:23;;;;;;;13.10;4.80;;;;;;;17.76;95.34;99496.27;106069;1251;68345;-76
2023/08/09 04:11:50;;;;;;;10.90;4.90;;;;;;;18.25;91.98;99499.52;106086;1251;71198;-75
2023/08/09 04:14:17;;;;;;;8.10;4.50;;;;;;;18.34;88.49;99501.30;106221;1251;61827;-75
2023/08/09 04:16:44;;;;;;;10.60;4.70;;;;;;;18.44;89.24;99502.15;106463;1251;60531;-76
2023/08/09 04:19:10;;;;;;;11.40;5.00;;;;;;;18.65;87.81;99509.02;106255;1251;73811;-77
2023/08/09 04:21:39;;;;;;;55.60;8.00;;;;;;;18.64;88.12;99510.38;106193;1256;68545;-76
2023/08/09 04:24:06;;;;;;;16.60;6.00;;;;;;;19.12;85.94;99515.79;106129;1256;70708;-77
2023/08/09 04:26:33;;;;;;;7.40;4.70;;;;;;;19.37;81.18;99519.23;105914;1258;61676;-76
2023/08/09 04:29:00;;;;;;;6.50;4.50;;;;;;;19.61;80.97;99524.70;106146;1254;60431;-76
2023/08/09 04:31:27;;;;;;;6.50;4.50;;;;;;;19.56;78.88;99527.92;106135;1255;73782;-77
2023/08/09 04:33:54;;;;;;;9.00;4.70;;;;;;;19.82;78.23;99530.77;106111;1251;68499;-76
2023/08/09 04:36:21;;;;;;;9.40;4.80;;;;;;;20.03;76.29;99536.51;105803;1257;71219;-76
2023/08/09 04:38:47;;;;;;;7.30;4.80;;;;;;;20.16;75.90;99539.84;106077;1251;61635;-77
2023/08/09 04:41:14;;;;;;;6.80;4.30;;;;;;;19.87;77.82;99539.41;106137;1251;60447;-77
2023/08/09 04:43:44;;;;;;;5.00;4.00;;;;;;;19.82;79.47;99538.61;106181;1251;73554;-76
2023/08/09 04:46:12;;;;;;;12.20;4.60;;;;;;;20.25;77.23;99537.86;105892;1259;67516;-79
2023/08/09 04:48:43;;;;;;;5.50;3.90;;;;;;;20.61;74.55;99536.20;106250;1251;72465;-77
2023/08/09 04:51:10;;;;;;;7.50;4.00;;;;;;;20.63;74.54;99539.67;105978;1257;60562;-78
2023/08/09 04:53:37;;;;;;;12.70;4.50;;;;;;;20.83;73.29;99538.29;106154;1251;60412;-78
2023/08/09 04:56:03;;;;;;;10.50;4.60;;;;;;;20.80;72.77;99536.75;106188;1257;72439;-80
2023/08/09 04:58:31;;;;;;;8.50;4.40;;;;;;;21.39;70.40;99534.08;106149;1251;68564;-79
2023/08/09 05:00:58;;;;;;;6.70;4.20;;;;;;;22.05;67.53;99532.44;106169;1257;72543;-79
2023/08/09 05:03:24;;;;;;;7.50;4.20;;;;;;;22.45;64.21;99537.84;106533;1254;60459;-77
2023/08/09 05:05:51;;;;;;;6.60;4.20;;;;;;;22.66;60.72;99539.95;106765;1251;60415;-77
2023/08/09 05:08:18;;;;;;;7.40;3.80;;;;;;;23.13;58.99;99542.27;106808;1254;72335;-78
2023/08/09 05:10:45;;;;;;;7.40;4.20;;;;;;;23.21;57.47;99552.50;107186;1251;67393;-78
2023/08/09 05:13:11;;;;;;;33.70;5.20;;;;;;;22.90;58.17;99554.51;106989;1251;72341;-77
2023/08/09 05:15:38;;;;;;;6.50;4.10;;;;;;;22.84;59.21;99554.12;107148;1251;60473;-78
2023/08/09 05:18:05;;;;;;;5.10;3.90;;;;;;;22.79;59.78;99562.55;107050;1251;60482;-77
2023/08/09 05:20:32;;;;;;;11.80;4.00;;;;;;;22.93;58.47;99561.55;106971;1251;73727;-77
2023/08/09 05:22:58;;;;;;;8.50;4.30;;;;;;;22.84;59.68;99559.43;106818;1251;67211;-78
2023/08/09 05:25:59;;;;;;;6.50;4.40;;;;;;;23.02;59.83;99562.59;107110;1251;71410;-78
2023/08/09 05:28:33;;;;;;;6.90;3.90;;;;;;;23.80;55.83;99570.84;106673;1259;60345;-78
2023/08/09 05:31:00;;;;;;;9.60;4.30;;;;;;;24.23;53.95;99574.38;106713;1260;60423;-77
2023/08/09 05:33:27;;;;;;;9.50;4.30;;;;;;;24.13;53.45;99573.30;108610;1259;73692;-77
2023/08/09 05:35:55;;;;;;;8.40;4.00;;;;;;;24.11;52.78;99576.23;109071;1259;67335;-79
2023/08/09 05:38:22;;;;;;;5.20;4.10;;;;;;;24.31;52.82;99578.88;109027;1260;71515;-78
2023/08/09 05:40:48;;;;;;;6.50;3.60;;;;;;;24.45;51.40;99576.96;108998;1259;58763;-77
2023/08/09 05:43:15;;;;;;;7.70;3.10;;;;;;;24.69;51.27;99578.60;109036;1259;58854;-78
2023/08/09 05:45:44;;;;;;;5.40;3.50;;;;;;;25.00;49.58;99577.61;109047;1261;72402;-76
2023/08/09 05:48:11;;;;;;;5.00;3.20;;;;;;;25.09;49.11;99579.89;109082;1259;67211;-78
2023/08/09 05:50:38;;;;;;;9.20;3.90;;;;;;;25.39;47.92;99583.10;109040;1260;71154;-76
2023/08/09 05:53:05;;;;;;;4.80;2.70;;;;;;;25.60;46.53;99586.29;108970;1260;58857;-76
2023/08/09 05:55:33;;;;;;;11.40;4.10;;;;;;;25.43;46.68;99586.58;109098;1259;58766;-78
2023/08/09 05:58:00;;;;;;;4.00;2.90;;;;;;;25.74;46.83;99588.30;109105;1260;72574;-79
2023/08/09 06:00:26;;;;;;;6.20;3.40;;;;;;;26.19;44.88;99593.00;109084;1259;67329;-79
2023/08/09 06:02:53;;;;;;;10.80;3.70;;;;;;;26.13;44.24;99597.19;109083;1259;71173;-79
2023/08/09 06:05:22;;;;;;;5.30;2.60;;;;;;;26.29;42.82;99598.02;109484;1252;58876;-79
2023/08/09 06:07:49;;;;;;;4.40;2.70;;;;;;;26.47;42.56;99593.89;109727;1251;59080;-78
2023/08/09 06:10:16;;;;;;;3.50;2.70;;;;;;;26.63;43.20;99599.05;109809;1251;72283;-79
2023/08/09 06:12:43;;;;;;;3.30;2.30;;;;;;;26.85;41.66;99600.77;109778;1251;68835;-79
2023/08/09 06:15:11;;;;;;;4.20;2.70;;;;;;;26.97;40.76;99601.71;109757;1251;71058;-78
2023/08/09 06:17:38;;;;;;;3.40;2.80;;;;;;;26.39;40.88;99594.89;109759;1251;58873;-79
2023/08/09 06:20:05;;;;;;;3.60;2.50;;;;;;;26.21;41.41;99599.83;109776;1251;58719;-78
2023/08/09 06:22:32;;;;;;;8.70;3.30;;;;;;;26.40;41.67;99598.69;107166;1251;72351;-80
2023/08/09 06:25:00;;;;;;;6.20;3.50;;;;;;;26.81;39.82;99605.88;106517;1251;68554;-80
2023/08/09 06:27:27;;;;;;;;;;;;;;;26.62;39.38;99604.61;106368;1257;72395;-77
2023/08/09 06:29:54;;;;;;;7.30;3.70;;;;;;;26.54;39.64;99604.27;106495;1251;61498;-79
2023/08/09 06:32:21;;;;;;;20.40;4.40;;;;;;;26.52;40.76;99605.16;106335;1251;60456;-77
2023/08/09 06:34:49;;;;;;;6.00;3.10;;;;;;;26.24;42.25;99599.24;106303;1256;73458;-78
2023/08/09 06:37:16;;;;;;;5.00;2.60;;;;;;;26.29;42.39;99599.38;106326;1255;67079;-79
2023/08/09 06:39:43;;;;;;;3.80;2.00;;;;;;;26.41;41.51;99598.23;106353;1251;72494;-77
2023/08/09 06:42:12;;;;;;;8.20;2.50;;;;;;;26.58;40.85;99597.52;106339;1251;60347;-79
2023/08/09 06:44:39;;;;;;;3.90;2.50;;;;;;;26.69;40.00;99605.63;106381;1251;60528;-79
2023/08/09 06:47:06;;;;;;;4.80;2.80;;;;;;;26.49;40.88;99600.46;106013;1259;73545;-77
2023/08/09 06:49:33;;;;;;;6.20;2.40;;;;;;;25.77;42.06;99605.51;106221;1251;68372;-77
2023/08/09 06:52:00;;;;;;;6.10;2.90;;;;;;;25.70;42.50;99602.34;106220;1256;72382;-78
2023/08/09 06:54:28;;;;;;;9.40;2.70;;;;;;;26.19;42.62;99603.78;106293;1251;60440;-76
2023/08/09 06:56:54;;;;;;;5.80;3.30;;;;;;;26.07;43.07;99601.23;106252;1255;60346;-72
2023/08/09 06:59:21;;;;;;;4.10;3.30;;;;;;;26.40;42.63;99598.59;105873;1257;72512;-66
2023/08/09 07:01:48;;;;;;;6.60;3.30;;;;;;;26.24;43.77;99594.45;105983;1251;69034;-68
2023/08/09 07:04:16;;;;;;;5.40;3.10;;;;;;;26.41;43.37;99598.46;105643;1257;73214;-70
2023/08/09 07:06:44;;;;;;;6.90;3.10;;;;;;;26.72;42.25;99601.84;105962;1251;60339;-71
2023/08/09 07:09:13;;;;;;;6.60;2.90;;;;;;;26.36;42.40;99603.61;105981;1251;60346;-72
2023/08/09 07:11:40;;;;;;;4.40;2.90;;;;;;;26.10;42.19;99602.84;105942;1255;74350;-68
2023/08/09 07:14:07;;;;;;;10.00;2.60;;;;;;;26.76;41.16;99607.33;105964;1253;69116;-69
2023/08/09 07:16:34;;;;;;;4.80;2.70;;;;;;;26.99;40.82;99610.81;105835;1257;72801;-68
2023/08/09 07:19:01;;;;;;;4.40;3.00;;;;;;;26.88;40.37;99618.43;105906;1253;60458;-70
2023/08/09 07:21:28;;;;;;;5.50;2.60;;;;;;;27.21;38.34;99619.44;105918;1253;60463;-69
2023/08/09 07:23:55;;;;;;;6.20;2.30;;;;;;;26.76;38.54;99619.38;105926;1257;74263;-71
2023/08/09 07:26:26;;;;;;;7.90;2.30;;;;;;;26.19;39.24;99621.29;105917;1253;68971;-71
2023/08/09 07:28:53;;;;;;;7.00;2.40;;;;;;;26.49;38.59;99614.77;105957;1254;71223;-71
2023/08/09 07:31:20;;;;;;;3.20;2.30;;;;;;;26.85;38.44;99615.88;105919;1253;60438;-71
2023/08/09 07:33:48;;;;;;;6.10;2.00;;;;;;;27.23;37.80;99615.15;105665;1254;60816;-69
2023/08/09 07:36:15;;;;;;;2.20;1.90;;;;;;;27.28;37.35;99616.75;105957;1253;72523;-69
2023/08/09 07:38:42;;;;;;;5.70;2.60;;;;;;;27.14;38.30;99615.20;105943;1256;67345;-68
2023/08/09 07:41:09;;;;;;;13.10;3.40;;;;;;;27.08;39.24;99616.48;105896;1254;73127;-67
2023/08/09 07:43:36;;;;;;;2.50;2.10;;;;;;;27.18;38.80;99613.70;105622;1260;60609;-70
2023/08/09 07:46:05;;;;;;;5.00;2.00;;;;;;;27.62;37.81;99621.08;105982;1253;60450;-70
2023/08/09 07:48:32;;;;;;;2.20;1.80;;;;;;;27.83;36.89;99619.78;106127;1255;74228;-70
2023/08/09 07:51:00;;;;;;;6.10;2.30;;;;;;;27.86;36.93;99618.04;105834;1255;69259;-72
2023/08/09 07:53:26;;;;;;;5.00;2.00;;;;;;;27.68;36.58;99623.15;105909;1255;73169;-68
2023/08/09 07:55:53;;;;;;;3.40;2.10;;;;;;;27.94;36.38;99622.58;105873;1253;61708;-69
2023/08/09 07:58:20;;;;;;;3.10;2.20;;;;;;;28.31;36.43;99621.91;105908;1251;61141;-68
2023/08/09 08:00:47;;;;;;;4.30;1.90;;;;;;;27.75;36.83;99619.20;105930;1256;74842;-69
2023/08/09 08:03:18;;;;;;;3.60;2.40;;;;;;;27.01;36.35;99615.56;105956;1254;68135;-69
2023/08/09 08:05:45;;;;;;;;;;;;;;;26.82;35.70;99621.09;105966;1254;73225;-70
2023/08/09 08:08:17;;;;;;;3.00;1.90;;;;;;;27.44;34.97;99619.50;105938;1251;61340;-71
2023/08/09 08:10:44;;;;;;;3.30;2.40;;;;;;;27.36;34.74;99618.54;106052;1251;61127;-70
2023/08/09 08:13:12;;;;;;;2.90;1.90;;;;;;;27.21;35.03;99619.28;105930;1256;75546;-70
2023/08/09 08:15:39;;;;;;;5.30;2.00;;;;;;;27.63;35.36;99619.92;105699;1251;69186;-70
2023/08/09 08:18:06;;;;;;;5.80;2.20;;;;;;;28.02;34.73;99621.84;105933;1254;73116;-69
2023/08/09 08:20:33;;;;;;;4.20;2.10;;;;;;;27.99;33.68;99621.79;106063;1256;61681;-69
2023/08/09 08:23:00;;;;;;;2.90;1.70;;;;;;;28.18;33.01;99622.73;106057;1256;61450;-68
2023/08/09 08:25:27;;;;;;;3.10;1.90;;;;;;;28.25;33.20;99623.08;105930;1256;75050;-70
2023/08/09 08:27:55;;;;;;;5.70;1.50;;;;;;;27.95;34.00;99624.01;105951;1251;69000;-68
2023/08/09 08:30:22;;;;;;;5.50;2.00;;;;;;;27.73;34.31;99617.27;106022;1256;73126;-72
2023/08/09 08:32:49;;;;;;;3.60;2.00;;;;;;;28.37;33.98;99617.73;105902;1251;61402;-67
2023/08/09 08:35:20;;;;;;;28.20;3.80;;;;;;;28.79;33.20;99614.46;105973;1251;61273;-74
2023/08/09 08:37:48;;;;;;;3.80;2.20;;;;;;;28.82;33.04;99613.72;106105;1251;75181;-73
2023/08/09 08:40:19;;;;;;;3.80;2.00;;;;;;;28.31;33.66;99615.84;105849;1257;67313;-69
2023/08/09 08:42:49;;;;;;;15.10;2.70;;;;;;;28.16;33.92;99616.23;106023;1256;72969;-69
2023/08/09 08:45:17;;;;;;;4.60;1.80;;;;;;;28.56;33.17;99621.73;105993;1256;61367;-70
2023/08/09 08:47:44;;;;;;;4.50;1.70;;;;;;;28.51;33.17;99625.76;105661;1251;61251;-70
2023/08/09 08:50:12;;;;;;;2.50;1.80;;;;;;;28.71;32.69;99624.31;105940;1252;74572;-70
2023/08/09 08:52:47;;;;;;;2.70;1.70;;;;;;;28.67;32.17;99628.44;105941;1253;68560;-70
2023/08/09 08:55:15;;;;;;;4.00;2.10;;;;;;;28.33;32.14;99631.64;105923;1257;73166;-68
2023/08/09 08:57:42;;;;;;;3.70;2.00;;;;;;;28.24;32.68;99633.08;105941;1253;62290;-69
2023/08/09 09:00:15;;;;;;;;;;;;;;;28.72;31.88;99634.18;105710;1251;61499;-69
2023/08/09 09:02:54;;;;;;;3.50;2.10;;;;;;;29.18;31.52;99637.30;105914;1255;75491;-70
2023/08/09 09:05:21;;;;;;;2.30;1.50;;;;;;;28.63;32.73;99632.23;105956;1251;68803;-70
2023/08/09 09:07:51;;;;;;;2.10;1.70;;;;;;;28.36;33.27;99633.98;106015;1251;73004;-76
2023/08/09 09:10:20;;;;;;;7.20;2.10;;;;;;;28.40;32.45;99634.35;106048;1251;61355;-68
2023/08/09 09:12:51;;;;;;;2.10;1.50;;;;;;;28.69;32.51;99638.70;105823;1251;61237;-74
2023/08/09 09:15:17;;;;;;;3.30;1.60;;;;;;;28.44;32.73;99631.26;105853;1251;73733;-68
2023/08/09 09:17:44;;;;;;;1.60;1.50;;;;;;;28.24;32.28;99638.44;106045;1251;69170;-69
2023/08/09 09:20:21;;;;;;;4.30;1.90;;;;;;;29.27;32.03;99637.79;105950;1251;72493;-70
2023/08/09 09:22:48;;;;;;;1.70;1.60;;;;;;;29.54;31.03;99640.14;105690;1255;61665;-69
2023/08/09 09:25:17;;;;;;;4.30;1.80;;;;;;;28.98;31.71;99638.14;105971;1251;61253;-71
2023/08/09 09:27:47;;;;;;;4.00;1.70;;;;;;;28.59;31.78;99639.21;105914;1256;74277;-70
2023/08/09 09:30:14;;;;;;;3.80;1.80;;;;;;;29.07;31.04;99641.73;105974;1252;67523;-72
2023/08/09 09:32:57;;;;;;;2.60;1.80;;;;;;;29.54;30.86;99645.60;106046;1256;73493;-72
2023/08/09 09:35:28;;;;;;;3.10;2.30;;;;;;;29.05;30.56;99644.15;106023;1251;61247;-71
2023/08/09 09:37:58;;;;;;;2.00;1.80;;;;;;;29.05;30.84;99644.70;106827;1251;62299;-72
2023/08/09 09:40:31;;;;;;;1.60;1.50;;;;;;;29.49;30.19;99643.34;107599;1255;75033;-71
2023/08/09 09:43:01;;;;;;;1.80;1.60;;;;;;;29.97;29.04;99644.20;106400;1251;67233;-70
2023/08/09 09:45:29;;;;;;;11.40;2.40;;;;;;;30.10;28.84;99641.92;106892;1251;72190;-70
2023/08/09 09:48:00;;;;;;;1.60;1.40;;;;;;;29.61;30.09;99634.29;105669;1256;61321;-75
2023/08/09 09:50:28;;;;;;;4.80;1.60;;;;;;;29.65;30.22;99633.87;105557;1257;61266;-75
2023/08/09 09:52:56;;;;;;;2.30;1.70;;;;;;;29.58;30.02;99631.34;105674;1260;74575;-76
2023/08/09 09:55:26;;;;;;;3.00;1.70;;;;;;;29.84;28.62;99634.75;105621;1256;68682;-74
2023/08/09 09:57:53;;;;;;;3.00;1.70;;;;;;;29.68;29.22;99629.08;105494;1257;71209;-74
2023/08/09 10:00:20;;;;;;;;;;;;;;;29.98;29.58;99633.37;105664;1257;61326;-71
2023/08/09 10:02:51;;;;;;;5.70;2.20;;;;;;;30.22;29.08;99629.84;105514;1258;61482;-69
2023/08/09 10:05:21;;;;;;;2.60;1.90;;;;;;;29.59;30.20;99628.90;105480;1261;75584;-70
2023/08/09 10:07:49;;;;;;;3.50;2.30;;;;;;;29.74;30.12;99626.20;105542;1257;68269;-72
2023/08/09 10:10:21;;;;;;;4.10;1.90;;;;;;;29.69;30.37;99628.63;105577;1257;73142;-72
2023/08/09 10:13:09;;;;;;;4.20;2.10;;;;;;;29.82;29.63;99626.85;105594;1257;61237;-70
2023/08/09 10:15:38;;;;;;;7.30;2.00;;;;;;;29.69;30.34;99622.11;105209;1260;61373;-69
2023/08/09 10:18:16;;;;;;;2.90;1.70;;;;;;;30.02;30.47;99622.65;105368;1262;74642;-70
2023/08/09 10:20:46;;;;;;;2.80;1.70;;;;;;;29.77;29.92;99625.77;105522;1259;68608;-70
2023/08/09 10:23:20;;;;;;;2.30;1.50;;;;;;;28.83;31.16;99614.19;105554;1258;72794;-70
2023/08/09 10:25:47;;;;;;;4.20;1.50;;;;;;;28.76;30.79;99615.21;105580;1257;61345;-68
2023/08/09 10:28:15;;;;;;;5.20;2.20;;;;;;;28.73;30.58;99614.93;105539;1257;61343;-70
2023/08/09 10:30:47;;;;;;;4.70;2.00;;;;;;;29.58;30.18;99616.48;105183;1260;75342;-70
2023/08/09 10:33:18;;;;;;;3.40;2.00;;;;;;;29.97;29.73;99619.52;105249;1262;69022;-71
2023/08/09 10:35:54;;;;;;;4.70;2.20;;;;;;;29.56;30.00;99620.25;105339;1267;72304;-68
2023/08/09 10:38:40;;;;;;;2.50;1.60;;;;;;;29.49;29.95;99616.79;105184;1260;61510;-70
2023/08/09 10:41:15;;;;;;;3.30;1.70;;;;;;;29.92;29.98;99620.13;105162;1261;61338;-69
2023/08/09 10:43:41;;;;;;;6.70;2.40;;;;;;;30.30;29.15;99616.08;105276;1263;75084;-72
2023/08/09 10:46:25;;;;;;;4.50;2.00;;;;;;;30.22;29.29;99616.72;105282;1256;69258;-70
2023/08/09 10:48:58;;;;;;;2.90;1.50;;;;;;;29.54;28.88;99612.81;105600;1259;72759;-69
2023/08/09 10:51:25;;;;;;;2.30;1.80;;;;;;;28.78;29.79;99604.11;105887;1254;61335;-70
2023/08/09 10:54:03;;;;;;;2.10;1.80;;;;;;;29.06;29.67;99602.65;105960;1251;61330;-72
2023/08/09 10:56:30;;;;;;;2.90;1.70;;;;;;;29.60;29.69;99604.81;105981;1255;74491;-70
2023/08/09 10:59:08;;;;;;;2.30;1.70;;;;;;;29.60;28.93;99605.98;105991;1251;69133;-70
2023/08/09 11:01:37;;;;;;;5.30;1.70;;;;;;;29.75;29.21;99609.84;105738;1257;72636;-68
2023/08/09 11:04:06;;;;;;;3.80;1.50;;;;;;;30.19;28.57;99609.59;106060;1251;62343;-69
2023/08/09 11:06:41;;;;;;;1.80;1.70;;;;;;;30.37;28.33;99608.30;106034;1251;61264;-70
2023/08/09 11:09:12;;;;;;;2.10;1.50;;;;;;;29.95;28.99;99605.84;105983;1255;75174;-75
2023/08/09 11:11:44;;;;;;;2.20;1.50;;;;;;;29.90;28.89;99600.42;105935;1251;67619;-72
2023/08/09 11:14:12;;;;;;;3.50;1.70;;;;;;;29.57;28.84;99600.27;106003;1256;72419;-68
2023/08/09 11:16:39;;;;;;;7.10;1.60;;;;;;;29.84;28.28;99605.12;105996;1251;61323;-69
2023/08/09 11:19:07;;;;;;;4.10;1.80;;;;;;;29.81;28.61;99603.98;105972;1251;61235;-70
2023/08/09 11:21:47;;;;;;;3.30;1.60;;;;;;;29.97;28.57;99597.46;105753;1260;74572;-69
2023/08/09 11:24:14;;;;;;;;;;;;;;;29.96;28.72;99604.42;105957;1251;68477;-69
2023/08/09 11:26:54;;;;;;;2.00;1.50;;;;;;;30.14;28.23;99607.88;105957;1251;71666;-69
2023/08/09 11:29:23;;;;;;;1.90;1.50;;;;;;;29.95;28.17;99608.36;106029;1251;62415;-68